DATUT ENTC-EDDH
Flight info
| Callsign | DATUT |
|---|---|
| Flight time | 2h 24m |
| Altitude | 32000 |
| Route | AMIMO4A AMIMO DCT GUBAV DCT VABOT DCT SOMUB/N0459F340 DCT AGNIL DCT TOR/N0463F330 DCT VIPPA DCT AAL DCT ALASA M852 EKERN T905 BOGMU BOGMU3P |
| Aircraft | T154/M-SDGRWY/S |
Departure
| Time | 2026-04-23 20:40 |
|---|---|
| Airport | Tromsø Airport (ENTC) |
Arrival
| Time | 2026-04-23 23:04 |
|---|---|
| Airport | Hamburg Helmut Schmidt Airport (EDDH) |
| Time | Latitude | Longitude | Altitude | Speed | Heading |
|---|---|---|---|---|---|
| 2026-04-23 19:44 | 69.68048 | 18.91000 | -11 ft | 0 kts | 283° |
| 2026-04-23 20:19 | 69.68048 | 18.91003 | -8 ft | 1 kts | 283° |
| 2026-04-23 20:20 | 69.68045 | 18.91043 | -7 ft | 2 kts | 283° |
| 2026-04-23 20:20 | 69.68041 | 18.91086 | -7 ft | 2 kts | 283° |
| 2026-04-23 20:20 | 69.68038 | 18.91129 | -6 ft | 2 kts | 283° |
| 2026-04-23 20:20 | 69.68034 | 18.91171 | -5 ft | 2 kts | 283° |
| 2026-04-23 20:21 | 69.68031 | 18.91212 | -4 ft | 2 kts | 283° |
| 2026-04-23 20:21 | 69.68029 | 18.91256 | -3 ft | 2 kts | 257° |
| 2026-04-23 20:21 | 69.68036 | 18.91292 | -2 ft | 2 kts | 227° |
| 2026-04-23 20:21 | 69.68048 | 18.91313 | -1 ft | 2 kts | 197° |
| 2026-04-23 20:22 | 69.68063 | 18.91321 | -1 ft | 2 kts | 193° |
| 2026-04-23 20:22 | 69.68077 | 18.91331 | -1 ft | 2 kts | 195° |
| 2026-04-23 20:22 | 69.68092 | 18.91341 | -1 ft | 2 kts | 193° |
| 2026-04-23 20:22 | 69.68106 | 18.91350 | 0 ft | 2 kts | 195° |
| 2026-04-23 20:23 | 69.68121 | 18.91360 | 0 ft | 2 kts | 194° |
| 2026-04-23 20:23 | 69.68131 | 18.91367 | 0 ft | 0 kts | 194° |
| 2026-04-23 20:30 | 69.68118 | 18.91357 | 0 ft | 5 kts | 193° |
| 2026-04-23 20:30 | 69.68062 | 18.91320 | -1 ft | 9 kts | 192° |
| 2026-04-23 20:31 | 69.67987 | 18.91270 | -2 ft | 12 kts | 192° |
| 2026-04-23 20:31 | 69.67899 | 18.91211 | -4 ft | 14 kts | 193° |
| 2026-04-23 20:31 | 69.67793 | 18.91142 | -7 ft | 16 kts | 192° |
| 2026-04-23 20:31 | 69.67694 | 18.91077 | -10 ft | 12 kts | 192° |
| 2026-04-23 20:32 | 69.67642 | 18.91086 | -11 ft | 4 kts | 118° |
| 2026-04-23 20:32 | 69.67640 | 18.91100 | -11 ft | 0 kts | 110° |
| 2026-04-23 20:35 | 69.67640 | 18.91102 | -11 ft | 0 kts | 110° |
| 2026-04-23 20:35 | 69.67633 | 18.91154 | -10 ft | 4 kts | 106° |
| 2026-04-23 20:36 | 69.67625 | 18.91250 | -8 ft | 4 kts | 102° |
| 2026-04-23 20:36 | 69.67618 | 18.91351 | -6 ft | 6 kts | 107° |
| 2026-04-23 20:36 | 69.67584 | 18.91399 | -6 ft | 7 kts | 191° |
| 2026-04-23 20:36 | 69.67512 | 18.91350 | -11 ft | 13 kts | 194° |
| 2026-04-23 20:37 | 69.67409 | 18.91271 | -15 ft | 17 kts | 193° |
| 2026-04-23 20:37 | 69.67292 | 18.91187 | -19 ft | 12 kts | 211° |
| 2026-04-23 20:37 | 69.67263 | 18.91183 | -19 ft | 3 kts | 98° |
| 2026-04-23 20:37 | 69.67279 | 18.91211 | -19 ft | 3 kts | 356° |
| 2026-04-23 20:38 | 69.67310 | 18.91213 | -18 ft | 4 kts | 12° |
| 2026-04-23 20:38 | 69.67312 | 18.91214 | -18 ft | 0 kts | 13° |
| 2026-04-23 20:39 | 69.67326 | 18.91223 | -18 ft | 13 kts | 13° |
| 2026-04-23 20:39 | 69.67680 | 18.91449 | -1 ft | 90 kts | 13° |
| 2026-04-23 20:39 | 69.68502 | 18.91971 | 4 ft | 150 kts | 12° |
| 2026-04-23 20:39 | 69.69597 | 18.92736 | 399 ft | 164 kts | 9° |
| 2026-04-23 20:40 | 69.70723 | 18.93514 | 1038 ft | 177 kts | 9° |
| 2026-04-23 20:40 | 69.72000 | 18.94363 | 1589 ft | 201 kts | 8° |
| 2026-04-23 20:40 | 69.73347 | 18.95240 | 2438 ft | 203 kts | 9° |
| 2026-04-23 20:40 | 69.74712 | 18.96208 | 3286 ft | 207 kts | 9° |
| 2026-04-23 20:41 | 69.76112 | 18.97161 | 4066 ft | 211 kts | 8° |
| 2026-04-23 20:41 | 69.77522 | 18.97700 | 4977 ft | 206 kts | 349° |
| 2026-04-23 20:41 | 69.78781 | 18.96018 | 5805 ft | 205 kts | 313° |
| 2026-04-23 20:41 | 69.79409 | 18.92438 | 6638 ft | 213 kts | 283° |
| 2026-04-23 20:42 | 69.79559 | 18.88137 | 7552 ft | 215 kts | 281° |
| 2026-04-23 20:42 | 69.79749 | 18.83915 | 8388 ft | 215 kts | 287° |
| 2026-04-23 20:42 | 69.80045 | 18.79733 | 9082 ft | 218 kts | 289° |
| 2026-04-23 20:42 | 69.80387 | 18.75332 | 9318 ft | 234 kts | 289° |
| 2026-04-23 20:43 | 69.80731 | 18.70612 | 9366 ft | 243 kts | 281° |
| 2026-04-23 20:43 | 69.80454 | 18.65804 | 9304 ft | 250 kts | 250° |
| 2026-04-23 20:43 | 69.79310 | 18.62036 | 9258 ft | 257 kts | 218° |
| 2026-04-23 20:43 | 69.77690 | 18.59752 | 9278 ft | 264 kts | 211° |
| 2026-04-23 20:44 | 69.75952 | 18.57363 | 9365 ft | 295 kts | 215° |
| 2026-04-23 20:44 | 69.74137 | 18.54510 | 10161 ft | 298 kts | 216° |
| 2026-04-23 20:44 | 69.72323 | 18.51605 | 10923 ft | 306 kts | 217° |
| 2026-04-23 20:44 | 69.70467 | 18.48623 | 11658 ft | 313 kts | 218° |
| 2026-04-23 20:45 | 69.68517 | 18.45468 | 12097 ft | 331 kts | 218° |
| 2026-04-23 20:45 | 69.66466 | 18.42141 | 12388 ft | 353 kts | 217° |
| 2026-04-23 20:45 | 69.64265 | 18.38606 | 12815 ft | 369 kts | 217° |
| 2026-04-23 20:45 | 69.62011 | 18.35012 | 13439 ft | 376 kts | 217° |
| 2026-04-23 20:46 | 69.59724 | 18.31371 | 14188 ft | 380 kts | 217° |
| 2026-04-23 20:46 | 69.57426 | 18.27693 | 14809 ft | 386 kts | 218° |
| 2026-04-23 20:46 | 69.55089 | 18.23965 | 15447 ft | 391 kts | 218° |
| 2026-04-23 20:46 | 69.52689 | 18.20151 | 16046 ft | 397 kts | 218° |
| 2026-04-23 20:47 | 69.50286 | 18.16350 | 16697 ft | 400 kts | 219° |
| 2026-04-23 20:47 | 69.47832 | 18.12464 | 17102 ft | 411 kts | 219° |
| 2026-04-23 20:47 | 69.45348 | 18.08559 | 17812 ft | 410 kts | 219° |
| 2026-04-23 20:47 | 69.42832 | 18.04610 | 18278 ft | 417 kts | 220° |
| 2026-04-23 20:48 | 69.40305 | 18.00650 | 18837 ft | 420 kts | 220° |
| 2026-04-23 20:48 | 69.37750 | 17.96640 | 19411 ft | 421 kts | 221° |
| 2026-04-23 20:48 | 69.35245 | 17.92545 | 19840 ft | 425 kts | 223° |
| 2026-04-23 20:48 | 69.32697 | 17.88316 | 20357 ft | 428 kts | 223° |
| 2026-04-23 20:49 | 69.30147 | 17.84146 | 21006 ft | 427 kts | 223° |
| 2026-04-23 20:49 | 69.27552 | 17.79915 | 21520 ft | 428 kts | 224° |
| 2026-04-23 20:49 | 69.24997 | 17.75756 | 21889 ft | 434 kts | 224° |
| 2026-04-23 20:49 | 69.22410 | 17.71580 | 22466 ft | 432 kts | 224° |
| 2026-04-23 20:50 | 69.19771 | 17.67302 | 22837 ft | 437 kts | 224° |
| 2026-04-23 20:50 | 69.17129 | 17.63037 | 23080 ft | 446 kts | 224° |
| 2026-04-23 20:50 | 69.14450 | 17.58758 | 23585 ft | 446 kts | 225° |
| 2026-04-23 20:50 | 69.11787 | 17.54514 | 24182 ft | 442 kts | 225° |
| 2026-04-23 20:51 | 69.09135 | 17.50311 | 24598 ft | 445 kts | 225° |
| 2026-04-23 20:51 | 69.06408 | 17.45919 | 24688 ft | 456 kts | 225° |
| 2026-04-23 20:51 | 69.03708 | 17.41650 | 25312 ft | 454 kts | 224° |
| 2026-04-23 20:51 | 69.00925 | 17.37231 | 25573 ft | 460 kts | 224° |
| 2026-04-23 20:52 | 68.98194 | 17.32937 | 26142 ft | 459 kts | 224° |
| 2026-04-23 20:52 | 68.95409 | 17.28524 | 26317 ft | 468 kts | 224° |
| 2026-04-23 20:52 | 68.92623 | 17.24171 | 27053 ft | 463 kts | 224° |
| 2026-04-23 20:52 | 68.89810 | 17.19749 | 27273 ft | 470 kts | 224° |
| 2026-04-23 20:53 | 68.86954 | 17.15293 | 27429 ft | 478 kts | 223° |
| 2026-04-23 20:53 | 68.84103 | 17.10920 | 27955 ft | 477 kts | 223° |
| 2026-04-23 20:53 | 68.81200 | 17.06442 | 28180 ft | 482 kts | 223° |
| 2026-04-23 20:53 | 68.78307 | 17.01998 | 28680 ft | 481 kts | 223° |
| 2026-04-23 20:54 | 68.75349 | 16.97632 | 28787 ft | 500 kts | 216° |
| 2026-04-23 20:54 | 68.72002 | 16.94822 | 29446 ft | 515 kts | 203° |
| 2026-04-23 20:54 | 68.68481 | 16.92739 | 29563 ft | 524 kts | 204° |
| 2026-04-23 20:54 | 68.64977 | 16.90607 | 29949 ft | 525 kts | 204° |
| 2026-04-23 20:55 | 68.61459 | 16.88440 | 30348 ft | 526 kts | 204° |
| 2026-04-23 20:55 | 68.57909 | 16.86237 | 30612 ft | 528 kts | 204° |
| 2026-04-23 20:55 | 68.54397 | 16.84082 | 30911 ft | 532 kts | 203° |
| 2026-04-23 20:55 | 68.50809 | 16.81866 | 31220 ft | 533 kts | 204° |
| 2026-04-23 20:56 | 68.47266 | 16.79724 | 31918 ft | 525 kts | 203° |
| 2026-04-23 20:56 | 68.43745 | 16.77571 | 32029 ft | 530 kts | 202° |
| 2026-04-23 20:56 | 68.36644 | 16.73241 | 32543 ft | 530 kts | 202° |
| 2026-04-23 20:57 | 68.33060 | 16.71078 | 32180 ft | 538 kts | 203° |
| 2026-04-23 20:57 | 68.29477 | 16.68916 | 32413 ft | 532 kts | 202° |
| 2026-04-23 20:57 | 68.22349 | 16.64644 | 32429 ft | 534 kts | 202° |
| 2026-04-23 20:58 | 68.15184 | 16.60369 | 32400 ft | 535 kts | 201° |
| 2026-04-23 20:58 | 68.07943 | 16.56077 | 32376 ft | 538 kts | 202° |
| 2026-04-23 20:59 | 68.00776 | 16.51865 | 32388 ft | 538 kts | 202° |
| 2026-04-23 20:59 | 67.93535 | 16.47630 | 32388 ft | 539 kts | 202° |
| 2026-04-23 21:00 | 67.86464 | 16.42840 | 32281 ft | 523 kts | 214° |
| 2026-04-23 21:00 | 67.80176 | 16.34628 | 32343 ft | 514 kts | 217° |
| 2026-04-23 21:01 | 67.73821 | 16.26381 | 32328 ft | 515 kts | 216° |
| 2026-04-23 21:01 | 67.67482 | 16.18220 | 32355 ft | 514 kts | 216° |
| 2026-04-23 21:02 | 67.61153 | 16.10128 | 32379 ft | 513 kts | 216° |
| 2026-04-23 21:02 | 67.54845 | 16.02110 | 32386 ft | 513 kts | 216° |
| 2026-04-23 21:03 | 67.48530 | 15.94130 | 32392 ft | 513 kts | 216° |
| 2026-04-23 21:03 | 67.42205 | 15.86183 | 32401 ft | 512 kts | 216° |
| 2026-04-23 21:04 | 67.35838 | 15.78237 | 32390 ft | 512 kts | 215° |
| 2026-04-23 21:04 | 67.29463 | 15.70323 | 32401 ft | 511 kts | 215° |
| 2026-04-23 21:05 | 67.23104 | 15.62482 | 32423 ft | 510 kts | 215° |
| 2026-04-23 21:05 | 67.16806 | 15.54758 | 32432 ft | 508 kts | 215° |
| 2026-04-23 21:06 | 67.10502 | 15.47070 | 32431 ft | 506 kts | 215° |
| 2026-04-23 21:06 | 67.04331 | 15.39587 | 32420 ft | 505 kts | 214° |
| 2026-04-23 21:07 | 66.98086 | 15.32051 | 32395 ft | 504 kts | 214° |
| 2026-04-23 21:07 | 66.91872 | 15.24572 | 32387 ft | 504 kts | 213° |
| 2026-04-23 21:08 | 66.85728 | 15.17269 | 32295 ft | 504 kts | 213° |
| 2026-04-23 21:08 | 66.79497 | 15.09922 | 32334 ft | 502 kts | 213° |
| 2026-04-23 21:09 | 66.73382 | 15.02718 | 32357 ft | 500 kts | 213° |
| 2026-04-23 21:09 | 66.67195 | 14.95465 | 32377 ft | 498 kts | 213° |
| 2026-04-23 21:10 | 66.61046 | 14.88294 | 32386 ft | 497 kts | 213° |
| 2026-04-23 21:10 | 66.54877 | 14.81141 | 32395 ft | 497 kts | 213° |
| 2026-04-23 21:11 | 66.48705 | 14.74023 | 32406 ft | 497 kts | 213° |
| 2026-04-23 21:11 | 66.42457 | 14.66858 | 32427 ft | 497 kts | 212° |
| 2026-04-23 21:12 | 66.36276 | 14.59810 | 32437 ft | 496 kts | 212° |
| 2026-04-23 21:12 | 66.30073 | 14.52773 | 32443 ft | 497 kts | 212° |
| 2026-04-23 21:13 | 66.23856 | 14.45758 | 32452 ft | 497 kts | 212° |
| 2026-04-23 21:13 | 66.17681 | 14.38831 | 32438 ft | 497 kts | 212° |
| 2026-04-23 21:14 | 66.11481 | 14.31903 | 32407 ft | 497 kts | 211° |
| 2026-04-23 21:14 | 66.05232 | 14.24939 | 32377 ft | 497 kts | 211° |
| 2026-04-23 21:15 | 65.99018 | 14.18074 | 32378 ft | 497 kts | 211° |
| 2026-04-23 21:15 | 65.92778 | 14.11225 | 32395 ft | 496 kts | 211° |
| 2026-04-23 21:16 | 65.86543 | 14.04431 | 32368 ft | 495 kts | 210° |
| 2026-04-23 21:16 | 65.80308 | 13.97697 | 32431 ft | 492 kts | 210° |
| 2026-04-23 21:17 | 65.74121 | 13.91116 | 32450 ft | 492 kts | 209° |
| 2026-04-23 21:17 | 65.67883 | 13.84827 | 32460 ft | 491 kts | 209° |
| 2026-04-23 21:18 | 65.61697 | 13.78564 | 32461 ft | 490 kts | 209° |
| 2026-04-23 21:18 | 65.55496 | 13.72312 | 32473 ft | 489 kts | 208° |
| 2026-04-23 21:19 | 65.49233 | 13.66029 | 32479 ft | 489 kts | 208° |
| 2026-04-23 21:19 | 65.43082 | 13.59890 | 32463 ft | 489 kts | 208° |
| 2026-04-23 21:20 | 65.36842 | 13.53693 | 32454 ft | 488 kts | 208° |
| 2026-04-23 21:20 | 65.30650 | 13.47578 | 32451 ft | 488 kts | 208° |
| 2026-04-23 21:21 | 65.24415 | 13.41449 | 32457 ft | 488 kts | 208° |
| 2026-04-23 21:21 | 65.18383 | 13.35533 | 32481 ft | 486 kts | 209° |
| 2026-04-23 21:22 | 65.12266 | 13.29262 | 32483 ft | 486 kts | 207° |
| 2026-04-23 21:22 | 65.06097 | 13.23257 | 32507 ft | 486 kts | 207° |
| 2026-04-23 21:23 | 64.99906 | 13.17345 | 32506 ft | 486 kts | 207° |
| 2026-04-23 21:23 | 64.93828 | 13.11582 | 32506 ft | 486 kts | 206° |
| 2026-04-23 21:24 | 64.87741 | 13.05847 | 32453 ft | 487 kts | 206° |
| 2026-04-23 21:24 | 64.81570 | 13.00094 | 32467 ft | 486 kts | 206° |
| 2026-04-23 21:25 | 64.75494 | 12.94427 | 32494 ft | 484 kts | 206° |
| 2026-04-23 21:25 | 64.69025 | 12.88712 | 32513 ft | 485 kts | 204° |
| 2026-04-23 21:26 | 64.62789 | 12.83490 | 32523 ft | 484 kts | 204° |
| 2026-04-23 21:26 | 64.56593 | 12.78268 | 32529 ft | 483 kts | 204° |
| 2026-04-23 21:27 | 64.50465 | 12.73122 | 32530 ft | 483 kts | 204° |
| 2026-04-23 21:27 | 64.44314 | 12.67978 | 32535 ft | 482 kts | 204° |
| 2026-04-23 21:28 | 64.38159 | 12.62848 | 32539 ft | 482 kts | 204° |
| 2026-04-23 21:28 | 64.31982 | 12.57735 | 32550 ft | 482 kts | 204° |
| 2026-04-23 21:29 | 64.25821 | 12.52663 | 32562 ft | 481 kts | 205° |
| 2026-04-23 21:29 | 64.19630 | 12.47587 | 32553 ft | 481 kts | 204° |
| 2026-04-23 21:30 | 64.13384 | 12.42487 | 32541 ft | 481 kts | 204° |
| 2026-04-23 21:30 | 64.07214 | 12.37480 | 32532 ft | 482 kts | 204° |
| 2026-04-23 21:31 | 64.01116 | 12.32542 | 32517 ft | 482 kts | 204° |
| 2026-04-23 21:31 | 63.94821 | 12.27452 | 32518 ft | 482 kts | 204° |
| 2026-04-23 21:32 | 63.88589 | 12.22459 | 32496 ft | 482 kts | 203° |
| 2026-04-23 21:32 | 63.82337 | 12.17509 | 32501 ft | 481 kts | 203° |
| 2026-04-23 21:33 | 63.76060 | 12.12539 | 32530 ft | 480 kts | 204° |
| 2026-04-23 21:33 | 63.69838 | 12.07628 | 32537 ft | 480 kts | 204° |
| 2026-04-23 21:34 | 63.63571 | 12.02702 | 32533 ft | 479 kts | 203° |
| 2026-04-23 21:34 | 63.57358 | 11.97842 | 32534 ft | 479 kts | 203° |
| 2026-04-23 21:35 | 63.51183 | 11.93034 | 32536 ft | 479 kts | 203° |
| 2026-04-23 21:35 | 63.45107 | 11.88324 | 32543 ft | 478 kts | 203° |
| 2026-04-23 21:36 | 63.35994 | 11.81302 | 32543 ft | 478 kts | 203° |
| 2026-04-23 21:37 | 63.29552 | 11.78008 | 32542 ft | 482 kts | 194° |
| 2026-04-23 21:37 | 63.23063 | 11.75300 | 32561 ft | 483 kts | 195° |
| 2026-04-23 21:37 | 63.19770 | 11.73876 | 32771 ft | 485 kts | 195° |
| 2026-04-23 21:38 | 63.16447 | 11.72444 | 33136 ft | 483 kts | 194° |
| 2026-04-23 21:38 | 63.13204 | 11.71048 | 33535 ft | 481 kts | 194° |
| 2026-04-23 21:38 | 63.09939 | 11.69644 | 33907 ft | 479 kts | 194° |
| 2026-04-23 21:38 | 63.06708 | 11.68256 | 34161 ft | 479 kts | 194° |
| 2026-04-23 21:39 | 63.03447 | 11.66857 | 34388 ft | 479 kts | 194° |
| 2026-04-23 21:39 | 63.00220 | 11.65477 | 34591 ft | 478 kts | 194° |
| 2026-04-23 21:39 | 62.96984 | 11.64095 | 34666 ft | 477 kts | 194° |
| 2026-04-23 21:40 | 62.90507 | 11.61338 | 34636 ft | 476 kts | 194° |
| 2026-04-23 21:40 | 62.84045 | 11.58617 | 34587 ft | 477 kts | 194° |
| 2026-04-23 21:41 | 62.77598 | 11.55908 | 34615 ft | 476 kts | 194° |
| 2026-04-23 21:41 | 62.71142 | 11.53201 | 34620 ft | 475 kts | 194° |
| 2026-04-23 21:42 | 62.64707 | 11.50513 | 34630 ft | 475 kts | 194° |
| 2026-04-23 21:42 | 62.58286 | 11.47843 | 34638 ft | 474 kts | 195° |
| 2026-04-23 21:43 | 62.51862 | 11.45185 | 34639 ft | 474 kts | 194° |
| 2026-04-23 21:43 | 62.45447 | 11.42543 | 34626 ft | 474 kts | 195° |
| 2026-04-23 21:44 | 62.39021 | 11.39904 | 34614 ft | 473 kts | 195° |
| 2026-04-23 21:44 | 62.32633 | 11.37294 | 34592 ft | 473 kts | 195° |
| 2026-04-23 21:45 | 62.26305 | 11.34718 | 34580 ft | 472 kts | 194° |
| 2026-04-23 21:45 | 62.19856 | 11.32072 | 34581 ft | 470 kts | 194° |
| 2026-04-23 21:46 | 62.13501 | 11.29500 | 34590 ft | 469 kts | 194° |
| 2026-04-23 21:46 | 62.07149 | 11.26947 | 34590 ft | 468 kts | 194° |
| 2026-04-23 21:47 | 62.00819 | 11.24418 | 34584 ft | 466 kts | 194° |
| 2026-04-23 21:47 | 61.94469 | 11.21891 | 34583 ft | 465 kts | 194° |
| 2026-04-23 21:48 | 61.88198 | 11.19407 | 34552 ft | 465 kts | 194° |
| 2026-04-23 21:48 | 61.81898 | 11.16939 | 34563 ft | 463 kts | 194° |
| 2026-04-23 21:49 | 61.75649 | 11.14487 | 34578 ft | 461 kts | 194° |
| 2026-04-23 21:49 | 61.69387 | 11.12035 | 34591 ft | 460 kts | 194° |
| 2026-04-23 21:50 | 61.63083 | 11.09573 | 34616 ft | 466 kts | 194° |
| 2026-04-23 21:50 | 61.56784 | 11.07126 | 34632 ft | 471 kts | 194° |
| 2026-04-23 21:51 | 61.50507 | 11.04699 | 34641 ft | 475 kts | 194° |
| 2026-04-23 21:51 | 61.44194 | 11.02267 | 34636 ft | 479 kts | 194° |
| 2026-04-23 21:52 | 61.37783 | 10.99808 | 34625 ft | 482 kts | 194° |
| 2026-04-23 21:52 | 61.31810 | 10.97527 | 34617 ft | 484 kts | 194° |
| 2026-04-23 21:53 | 61.26304 | 10.95431 | 34617 ft | 486 kts | 194° |
| 2026-04-23 21:53 | 61.18369 | 10.92425 | 34613 ft | 484 kts | 194° |
| 2026-04-23 21:54 | 61.12033 | 10.90038 | 34607 ft | 478 kts | 194° |
| 2026-04-23 21:54 | 61.05426 | 10.87556 | 34601 ft | 472 kts | 194° |
| 2026-04-23 21:55 | 60.99093 | 10.85185 | 34609 ft | 467 kts | 194° |
| 2026-04-23 21:55 | 60.93332 | 10.83038 | 34615 ft | 463 kts | 194° |
| 2026-04-23 21:56 | 60.86909 | 10.80831 | 34563 ft | 461 kts | 193° |
| 2026-04-23 21:56 | 60.80642 | 10.78736 | 34600 ft | 457 kts | 194° |
| 2026-04-23 21:57 | 60.74590 | 10.76691 | 34614 ft | 454 kts | 194° |
| 2026-04-23 21:57 | 60.68497 | 10.74636 | 34617 ft | 452 kts | 194° |
| 2026-04-23 21:58 | 60.62487 | 10.72616 | 34613 ft | 450 kts | 194° |
| 2026-04-23 21:58 | 60.56399 | 10.70576 | 34613 ft | 450 kts | 194° |
| 2026-04-23 21:59 | 60.50567 | 10.68630 | 34620 ft | 450 kts | 194° |
| 2026-04-23 21:59 | 60.44774 | 10.66705 | 34619 ft | 451 kts | 194° |
| 2026-04-23 22:00 | 60.35676 | 10.63696 | 34620 ft | 452 kts | 194° |
| 2026-04-23 22:00 | 60.29590 | 10.61692 | 34623 ft | 453 kts | 194° |
| 2026-04-23 22:01 | 60.23510 | 10.59698 | 34623 ft | 453 kts | 194° |
| 2026-04-23 22:01 | 60.17387 | 10.57697 | 34620 ft | 454 kts | 194° |
| 2026-04-23 22:02 | 60.11240 | 10.55696 | 34621 ft | 454 kts | 194° |
| 2026-04-23 22:02 | 60.05111 | 10.53709 | 34624 ft | 454 kts | 194° |
| 2026-04-23 22:03 | 59.99010 | 10.51738 | 34628 ft | 455 kts | 194° |
| 2026-04-23 22:03 | 59.92913 | 10.49775 | 34630 ft | 455 kts | 194° |
| 2026-04-23 22:04 | 59.86777 | 10.47813 | 34570 ft | 457 kts | 194° |
| 2026-04-23 22:04 | 59.80591 | 10.45852 | 34604 ft | 456 kts | 194° |
| 2026-04-23 22:05 | 59.74387 | 10.43879 | 34622 ft | 456 kts | 194° |
| 2026-04-23 22:05 | 59.68217 | 10.41923 | 34631 ft | 456 kts | 194° |
| 2026-04-23 22:06 | 59.62007 | 10.39961 | 34628 ft | 456 kts | 194° |
| 2026-04-23 22:06 | 59.55870 | 10.38030 | 34629 ft | 457 kts | 194° |
| 2026-04-23 22:07 | 59.49750 | 10.36110 | 34634 ft | 457 kts | 194° |
| 2026-04-23 22:07 | 59.43672 | 10.34204 | 34628 ft | 458 kts | 193° |
| 2026-04-23 22:08 | 59.37458 | 10.32239 | 34637 ft | 459 kts | 193° |
| 2026-04-23 22:08 | 59.31229 | 10.30302 | 34642 ft | 459 kts | 193° |
| 2026-04-23 22:09 | 59.25037 | 10.28388 | 34642 ft | 460 kts | 193° |
| 2026-04-23 22:09 | 59.18941 | 10.26511 | 34643 ft | 461 kts | 193° |
| 2026-04-23 22:10 | 59.12643 | 10.25186 | 34647 ft | 465 kts | 187° |
| 2026-04-23 22:10 | 59.06260 | 10.24432 | 34642 ft | 465 kts | 188° |
| 2026-04-23 22:11 | 58.99863 | 10.23576 | 34639 ft | 466 kts | 188° |
| 2026-04-23 22:11 | 58.93406 | 10.22710 | 34638 ft | 467 kts | 188° |
| 2026-04-23 22:12 | 58.86974 | 10.21856 | 34581 ft | 469 kts | 188° |
| 2026-04-23 22:12 | 58.80527 | 10.21009 | 34597 ft | 468 kts | 188° |
| 2026-04-23 22:13 | 58.74050 | 10.20155 | 34617 ft | 468 kts | 187° |
| 2026-04-23 22:13 | 58.67601 | 10.19305 | 34624 ft | 469 kts | 187° |
| 2026-04-23 22:14 | 58.61113 | 10.18454 | 34630 ft | 469 kts | 187° |
| 2026-04-23 22:14 | 58.54629 | 10.17605 | 34632 ft | 469 kts | 188° |
| 2026-04-23 22:15 | 58.48133 | 10.16756 | 34636 ft | 469 kts | 187° |
| 2026-04-23 22:15 | 58.41663 | 10.15916 | 34633 ft | 470 kts | 187° |
| 2026-04-23 22:16 | 58.35199 | 10.15082 | 34639 ft | 470 kts | 187° |
| 2026-04-23 22:16 | 58.28713 | 10.14247 | 34480 ft | 469 kts | 188° |
| 2026-04-23 22:17 | 58.25479 | 10.13831 | 34305 ft | 470 kts | 187° |
| 2026-04-23 22:17 | 58.22182 | 10.13408 | 34067 ft | 471 kts | 187° |
| 2026-04-23 22:17 | 58.18973 | 10.12997 | 33826 ft | 469 kts | 187° |
| 2026-04-23 22:17 | 58.15701 | 10.12580 | 33603 ft | 473 kts | 187° |
| 2026-04-23 22:18 | 58.12415 | 10.12160 | 33475 ft | 476 kts | 187° |
| 2026-04-23 22:18 | 58.09145 | 10.11743 | 33496 ft | 476 kts | 187° |
| 2026-04-23 22:18 | 58.02580 | 10.10912 | 33525 ft | 477 kts | 187° |
| 2026-04-23 22:19 | 57.95993 | 10.10080 | 33543 ft | 477 kts | 187° |
| 2026-04-23 22:19 | 57.89420 | 10.09252 | 33539 ft | 476 kts | 187° |
| 2026-04-23 22:20 | 57.82859 | 10.08437 | 33498 ft | 476 kts | 187° |
| 2026-04-23 22:20 | 57.76266 | 10.07616 | 33521 ft | 474 kts | 187° |
| 2026-04-23 22:21 | 57.69781 | 10.06804 | 33529 ft | 473 kts | 187° |
| 2026-04-23 22:21 | 57.63298 | 10.06000 | 33539 ft | 472 kts | 187° |
| 2026-04-23 22:22 | 57.56826 | 10.05198 | 33546 ft | 472 kts | 187° |
| 2026-04-23 22:22 | 57.50362 | 10.04401 | 33549 ft | 473 kts | 187° |
| 2026-04-23 22:23 | 57.43842 | 10.03599 | 33559 ft | 473 kts | 187° |
| 2026-04-23 22:23 | 57.37324 | 10.02804 | 33551 ft | 474 kts | 187° |
| 2026-04-23 22:24 | 57.30781 | 10.02007 | 33557 ft | 473 kts | 187° |
| 2026-04-23 22:24 | 57.24237 | 10.01211 | 33553 ft | 474 kts | 187° |
| 2026-04-23 22:25 | 57.17728 | 10.00423 | 33552 ft | 474 kts | 187° |
| 2026-04-23 22:25 | 57.11224 | 9.99638 | 33549 ft | 474 kts | 187° |
| 2026-04-23 22:26 | 57.04659 | 9.99367 | 33552 ft | 476 kts | 182° |
| 2026-04-23 22:26 | 56.98107 | 9.99337 | 33548 ft | 476 kts | 183° |
| 2026-04-23 22:27 | 56.91540 | 9.99217 | 33550 ft | 476 kts | 184° |
| 2026-04-23 22:27 | 56.84981 | 9.99097 | 33491 ft | 477 kts | 183° |
| 2026-04-23 22:28 | 56.78399 | 9.99037 | 33517 ft | 477 kts | 183° |
| 2026-04-23 22:28 | 56.71844 | 9.98942 | 33532 ft | 476 kts | 183° |
| 2026-04-23 22:29 | 56.65245 | 9.98842 | 33547 ft | 476 kts | 183° |
| 2026-04-23 22:29 | 56.58714 | 9.98742 | 33556 ft | 476 kts | 183° |
| 2026-04-23 22:30 | 56.52633 | 9.98649 | 33557 ft | 477 kts | 184° |
| 2026-04-23 22:30 | 56.45875 | 9.98546 | 33561 ft | 477 kts | 183° |
| 2026-04-23 22:31 | 56.39358 | 9.98447 | 33558 ft | 477 kts | 183° |
| 2026-04-23 22:32 | 56.26755 | 9.98257 | 33558 ft | 477 kts | 183° |
| 2026-04-23 22:32 | 56.19620 | 9.98150 | 33556 ft | 477 kts | 183° |
| 2026-04-23 22:33 | 56.13080 | 9.98053 | 33562 ft | 477 kts | 183° |
| 2026-04-23 22:33 | 56.06470 | 9.97954 | 33561 ft | 477 kts | 183° |
| 2026-04-23 22:34 | 55.99920 | 9.97857 | 33555 ft | 477 kts | 183° |
| 2026-04-23 22:34 | 55.93350 | 9.97760 | 33561 ft | 477 kts | 183° |
| 2026-04-23 22:35 | 55.86774 | 9.97663 | 33502 ft | 479 kts | 183° |
| 2026-04-23 22:35 | 55.80218 | 9.97571 | 33528 ft | 478 kts | 183° |
| 2026-04-23 22:36 | 55.73717 | 9.97476 | 33547 ft | 477 kts | 183° |
| 2026-04-23 22:36 | 55.67151 | 9.97380 | 33551 ft | 477 kts | 183° |
| 2026-04-23 22:37 | 55.60592 | 9.97284 | 33560 ft | 477 kts | 183° |
| 2026-04-23 22:37 | 55.54008 | 9.97189 | 33562 ft | 477 kts | 183° |
| 2026-04-23 22:38 | 55.47441 | 9.97095 | 33562 ft | 472 kts | 183° |
| 2026-04-23 22:38 | 55.44283 | 9.97051 | 33267 ft | 468 kts | 183° |
| 2026-04-23 22:38 | 55.41089 | 9.97003 | 32597 ft | 473 kts | 183° |
| 2026-04-23 22:39 | 55.37816 | 9.96955 | 32185 ft | 470 kts | 183° |
| 2026-04-23 22:39 | 55.34612 | 9.96910 | 31854 ft | 466 kts | 183° |
| 2026-04-23 22:39 | 55.31382 | 9.96865 | 31359 ft | 463 kts | 183° |
| 2026-04-23 22:39 | 55.28236 | 9.96820 | 30864 ft | 458 kts | 183° |
| 2026-04-23 22:40 | 55.25035 | 9.96774 | 30342 ft | 455 kts | 183° |
| 2026-04-23 22:40 | 55.21945 | 9.96730 | 29824 ft | 451 kts | 183° |
| 2026-04-23 22:40 | 55.15746 | 9.96641 | 28809 ft | 445 kts | 182° |
| 2026-04-23 22:41 | 55.12678 | 9.96597 | 28460 ft | 441 kts | 182° |
| 2026-04-23 22:41 | 55.09670 | 9.96555 | 28028 ft | 439 kts | 182° |
| 2026-04-23 22:41 | 55.06641 | 9.96512 | 27604 ft | 436 kts | 182° |
| 2026-04-23 22:41 | 55.03633 | 9.96469 | 27185 ft | 433 kts | 182° |
| 2026-04-23 22:42 | 55.00620 | 9.96427 | 26762 ft | 431 kts | 182° |
| 2026-04-23 22:42 | 54.97645 | 9.96385 | 26334 ft | 428 kts | 182° |
| 2026-04-23 22:42 | 54.94709 | 9.96344 | 25890 ft | 426 kts | 182° |
| 2026-04-23 22:42 | 54.91735 | 9.96302 | 25411 ft | 424 kts | 182° |
| 2026-04-23 22:43 | 54.88844 | 9.96261 | 24910 ft | 422 kts | 182° |
| 2026-04-23 22:43 | 54.85909 | 9.96221 | 24364 ft | 422 kts | 182° |
| 2026-04-23 22:43 | 54.82961 | 9.96181 | 23910 ft | 418 kts | 182° |
| 2026-04-23 22:43 | 54.80084 | 9.95986 | 23453 ft | 414 kts | 189° |
| 2026-04-23 22:44 | 54.77294 | 9.95138 | 23001 ft | 409 kts | 194° |
| 2026-04-23 22:44 | 54.74529 | 9.94131 | 22547 ft | 406 kts | 193° |
| 2026-04-23 22:44 | 54.71773 | 9.93198 | 22049 ft | 404 kts | 193° |
| 2026-04-23 22:44 | 54.69025 | 9.92300 | 21583 ft | 401 kts | 193° |
| 2026-04-23 22:45 | 54.66298 | 9.91412 | 21075 ft | 399 kts | 193° |
| 2026-04-23 22:45 | 54.63562 | 9.90521 | 20571 ft | 398 kts | 192° |
| 2026-04-23 22:45 | 54.60856 | 9.89655 | 20135 ft | 395 kts | 192° |
| 2026-04-23 22:45 | 54.58176 | 9.88801 | 19698 ft | 393 kts | 192° |
| 2026-04-23 22:46 | 54.55507 | 9.87950 | 19274 ft | 391 kts | 192° |
| 2026-04-23 22:46 | 54.52846 | 9.87108 | 18833 ft | 389 kts | 191° |
| 2026-04-23 22:46 | 54.50156 | 9.87078 | 18388 ft | 392 kts | 169° |
| 2026-04-23 22:46 | 54.47609 | 9.88577 | 18106 ft | 388 kts | 154° |
| 2026-04-23 22:47 | 54.45195 | 9.90685 | 17737 ft | 388 kts | 153° |
| 2026-04-23 22:47 | 54.42773 | 9.92739 | 17467 ft | 388 kts | 154° |
| 2026-04-23 22:47 | 54.40350 | 9.94720 | 17295 ft | 386 kts | 154° |
| 2026-04-23 22:47 | 54.37957 | 9.96668 | 17072 ft | 385 kts | 154° |
| 2026-04-23 22:48 | 54.35523 | 9.98649 | 16864 ft | 384 kts | 154° |
| 2026-04-23 22:48 | 54.33133 | 10.00589 | 16660 ft | 382 kts | 154° |
| 2026-04-23 22:48 | 54.30734 | 10.02533 | 16434 ft | 382 kts | 154° |
| 2026-04-23 22:48 | 54.28343 | 10.04468 | 16264 ft | 380 kts | 154° |
| 2026-04-23 22:49 | 54.25941 | 10.06409 | 16039 ft | 379 kts | 154° |
| 2026-04-23 22:49 | 54.23576 | 10.08318 | 15780 ft | 376 kts | 154° |
| 2026-04-23 22:49 | 54.21243 | 10.10197 | 15435 ft | 376 kts | 154° |
| 2026-04-23 22:49 | 54.18860 | 10.12115 | 15103 ft | 373 kts | 154° |
| 2026-04-23 22:50 | 54.16536 | 10.13983 | 14712 ft | 371 kts | 154° |
| 2026-04-23 22:50 | 54.14232 | 10.15834 | 14293 ft | 370 kts | 154° |
| 2026-04-23 22:50 | 54.11886 | 10.17716 | 13889 ft | 368 kts | 154° |
| 2026-04-23 22:50 | 54.09570 | 10.19572 | 13512 ft | 365 kts | 154° |
| 2026-04-23 22:51 | 54.07289 | 10.21397 | 13097 ft | 363 kts | 154° |
| 2026-04-23 22:51 | 54.05024 | 10.23206 | 12641 ft | 362 kts | 154° |
| 2026-04-23 22:51 | 54.02732 | 10.25035 | 12241 ft | 359 kts | 154° |
| 2026-04-23 22:51 | 54.00413 | 10.26495 | 11853 ft | 351 kts | 172° |
| 2026-04-23 22:52 | 53.98031 | 10.26460 | 11397 ft | 342 kts | 196° |
| 2026-04-23 22:52 | 53.95795 | 10.25440 | 11252 ft | 326 kts | 189° |
| 2026-04-23 22:52 | 53.93589 | 10.25597 | 11126 ft | 315 kts | 167° |
| 2026-04-23 22:52 | 53.91504 | 10.26198 | 11081 ft | 297 kts | 172° |
| 2026-04-23 22:53 | 53.89623 | 10.27399 | 10888 ft | 287 kts | 142° |
| 2026-04-23 22:53 | 53.88308 | 10.29790 | 10584 ft | 277 kts | 113° |
| 2026-04-23 22:53 | 53.87801 | 10.32835 | 10183 ft | 265 kts | 83° |
| 2026-04-23 22:53 | 53.88210 | 10.35750 | 9799 ft | 249 kts | 52° |
| 2026-04-23 22:54 | 53.89369 | 10.37759 | 9390 ft | 234 kts | 21° |
| 2026-04-23 22:54 | 53.90895 | 10.38321 | 8994 ft | 223 kts | 349° |
| 2026-04-23 22:54 | 53.92372 | 10.37638 | 8671 ft | 218 kts | 346° |
| 2026-04-23 22:54 | 53.93888 | 10.37462 | 8251 ft | 220 kts | 3° |
| 2026-04-23 22:55 | 53.95301 | 10.38438 | 7830 ft | 231 kts | 36° |
| 2026-04-23 22:55 | 53.96210 | 10.40729 | 7435 ft | 244 kts | 67° |
| 2026-04-23 22:55 | 53.96260 | 10.43646 | 7342 ft | 256 kts | 101° |
| 2026-04-23 22:55 | 53.95426 | 10.46355 | 7361 ft | 266 kts | 127° |
| 2026-04-23 22:56 | 53.94117 | 10.48629 | 7224 ft | 267 kts | 136° |
| 2026-04-23 22:56 | 53.92727 | 10.50674 | 7071 ft | 267 kts | 139° |
| 2026-04-23 22:56 | 53.91059 | 10.52048 | 6784 ft | 268 kts | 173° |
| 2026-04-23 22:56 | 53.89245 | 10.51834 | 6495 ft | 260 kts | 206° |
| 2026-04-23 22:57 | 53.87816 | 10.50179 | 6217 ft | 245 kts | 238° |
| 2026-04-23 22:57 | 53.86879 | 10.47837 | 6045 ft | 240 kts | 244° |
| 2026-04-23 22:57 | 53.85936 | 10.45490 | 5843 ft | 241 kts | 239° |
| 2026-04-23 22:57 | 53.84894 | 10.43249 | 5634 ft | 241 kts | 237° |
| 2026-04-23 22:58 | 53.83832 | 10.41061 | 5427 ft | 239 kts | 237° |
| 2026-04-23 22:58 | 53.82770 | 10.38882 | 5235 ft | 241 kts | 237° |
| 2026-04-23 22:58 | 53.81711 | 10.36716 | 4927 ft | 244 kts | 237° |
| 2026-04-23 22:58 | 53.80629 | 10.34507 | 4651 ft | 245 kts | 237° |
| 2026-04-23 22:59 | 53.79535 | 10.32268 | 4403 ft | 244 kts | 237° |
| 2026-04-23 22:59 | 53.78457 | 10.30065 | 4174 ft | 243 kts | 237° |
| 2026-04-23 22:59 | 53.77378 | 10.27864 | 3948 ft | 242 kts | 237° |
| 2026-04-23 22:59 | 53.76307 | 10.25686 | 3728 ft | 239 kts | 237° |
| 2026-04-23 23:00 | 53.75526 | 10.23321 | 3437 ft | 227 kts | 262° |
| 2026-04-23 23:00 | 53.75031 | 10.20820 | 3185 ft | 231 kts | 246° |
| 2026-04-23 23:00 | 53.73916 | 10.18782 | 3064 ft | 235 kts | 220° |
| 2026-04-23 23:00 | 53.72578 | 10.17309 | 2976 ft | 229 kts | 220° |
| 2026-04-23 23:01 | 53.71330 | 10.15627 | 2580 ft | 232 kts | 230° |
| 2026-04-23 23:01 | 53.70237 | 10.13628 | 2206 ft | 230 kts | 237° |
| 2026-04-23 23:01 | 53.69258 | 10.11547 | 1829 ft | 223 kts | 240° |
| 2026-04-23 23:01 | 53.68328 | 10.09565 | 1517 ft | 210 kts | 238° |
| 2026-04-23 23:02 | 53.67466 | 10.07807 | 1335 ft | 187 kts | 238° |
| 2026-04-23 23:02 | 53.66662 | 10.06179 | 1074 ft | 173 kts | 237° |
| 2026-04-23 23:02 | 53.65939 | 10.04712 | 800 ft | 153 kts | 238° |
| 2026-04-23 23:02 | 53.65324 | 10.03467 | 496 ft | 131 kts | 236° |
| 2026-04-23 23:03 | 53.64720 | 10.02257 | 374 ft | 138 kts | 236° |
| 2026-04-23 23:03 | 53.64125 | 10.01039 | 243 ft | 132 kts | 234° |
| 2026-04-23 23:03 | 53.63551 | 9.99867 | 69 ft | 130 kts | 234° |
| 2026-04-23 23:03 | 53.63047 | 9.98832 | 39 ft | 99 kts | 231° |
| 2026-04-23 23:04 | 53.62703 | 9.98133 | 37 ft | 58 kts | 229° |
| 2026-04-23 23:04 | 53.62457 | 9.97636 | 31 ft | 49 kts | 224° |
| 2026-04-23 23:04 | 53.62302 | 9.97372 | 31 ft | 20 kts | 196° |
| 2026-04-23 23:04 | 53.62198 | 9.97426 | 31 ft | 12 kts | 127° |
| 2026-04-23 23:05 | 53.62188 | 9.97456 | 31 ft | 0 kts | 112° |
| 2026-04-23 23:06 | 53.62186 | 9.97463 | 31 ft | 3 kts | 111° |
| 2026-04-23 23:06 | 53.62180 | 9.97537 | 32 ft | 9 kts | 83° |
| 2026-04-23 23:07 | 53.62215 | 9.97644 | 34 ft | 12 kts | 58° |
| 2026-04-23 23:07 | 53.62267 | 9.97762 | 36 ft | 12 kts | 52° |
| 2026-04-23 23:07 | 53.62324 | 9.97878 | 36 ft | 13 kts | 50° |
| 2026-04-23 23:07 | 53.62388 | 9.98005 | 37 ft | 14 kts | 49° |
| 2026-04-23 23:08 | 53.62459 | 9.98123 | 39 ft | 14 kts | 43° |
| 2026-04-23 23:08 | 53.62534 | 9.98242 | 39 ft | 15 kts | 45° |
| 2026-04-23 23:08 | 53.62606 | 9.98384 | 39 ft | 16 kts | 51° |
| 2026-04-23 23:08 | 53.62681 | 9.98535 | 41 ft | 17 kts | 50° |
| 2026-04-23 23:09 | 53.62757 | 9.98687 | 41 ft | 16 kts | 50° |
| 2026-04-23 23:09 | 53.62830 | 9.98836 | 41 ft | 16 kts | 50° |
| 2026-04-23 23:09 | 53.62906 | 9.98990 | 40 ft | 18 kts | 50° |
| 2026-04-23 23:09 | 53.62983 | 9.99147 | 38 ft | 15 kts | 50° |
| 2026-04-23 23:10 | 53.63051 | 9.99289 | 35 ft | 12 kts | 54° |
| 2026-04-23 23:10 | 53.63088 | 9.99379 | 34 ft | 10 kts | 55° |
| 2026-04-23 23:10 | 53.63132 | 9.99484 | 34 ft | 11 kts | 54° |
| 2026-04-23 23:10 | 53.63186 | 9.99599 | 34 ft | 11 kts | 50° |
| 2026-04-23 23:11 | 53.63214 | 9.99656 | 34 ft | 4 kts | 63° |
| 2026-04-23 23:11 | 53.63221 | 9.99726 | 33 ft | 8 kts | 105° |
| 2026-04-23 23:11 | 53.63172 | 9.99804 | 32 ft | 11 kts | 154° |
| 2026-04-23 23:11 | 53.63127 | 9.99842 | 31 ft | 3 kts | 153° |
| 2026-04-23 23:12 | 53.63114 | 9.99872 | 33 ft | 2 kts | 96° |
| 2026-04-23 23:12 | 53.63120 | 9.99908 | 34 ft | 4 kts | 58° |
| 2026-04-23 23:12 | 53.63141 | 9.99955 | 34 ft | 5 kts | 51° |
| 2026-04-23 23:12 | 53.63164 | 10.00003 | 35 ft | 4 kts | 46° |
| 2026-04-23 23:13 | 53.63189 | 9.99998 | 35 ft | 4 kts | 322° |
| 2026-04-23 23:13 | 53.63208 | 9.99971 | 35 ft | 0 kts | 320° |